Time;durP1;ratioP1;P1;durP2;ratioP2;P2;SDS_P1;SDS_P2;PMS_P1;PMS_P2;Temp;Humidity;BMP_temperature;BMP_pressure;BME280_temperature;BME280_humidity;BME280_pressure;Samples;Min_cycle;Max_cycle;Signal;HPM_P1;HPM_P2
2022/11/14 00:01:12;;;;;;;25.57;11.63;;;8.90;99.90;;;;;;4773846;30;20216;-90
2022/11/14 00:03:39;;;;;;;25.80;11.93;;;8.90;99.90;;;;;;4789330;30;20219;-90
2022/11/14 00:06:07;;;;;;;24.60;11.13;;;8.90;99.90;;;;;;4789394;29;20227;-90
2022/11/14 00:08:34;;;;;;;25.90;11.67;;;8.90;99.90;;;;;;4773852;30;20211;-90
2022/11/14 00:11:02;;;;;;;27.43;11.90;;;8.80;99.90;;;;;;4772864;30;20681;-87
2022/11/14 00:13:28;;;;;;;22.50;11.20;;;8.70;99.90;;;;;;4788742;29;20196;-86
2022/11/14 00:16:19;;;;;;;22.47;11.47;;;8.70;99.90;;;;;;4788698;29;20216;-89
2022/11/14 00:18:46;;;;;;;25.30;11.73;;;8.70;99.90;;;;;;4773588;30;20744;-87
2022/11/14 00:21:12;;;;;;;23.53;11.47;;;8.70;99.90;;;;;;4791656;29;20200;-86
2022/11/14 00:23:39;;;;;;;24.67;11.07;;;8.70;99.90;;;;;;4775248;30;20211;-86
2022/11/14 00:26:09;;;;;;;24.50;11.30;;;8.60;99.90;;;;;;4773462;30;20670;-86
2022/11/14 00:28:35;;;;;;;24.73;11.63;;;8.60;99.90;;;;;;4788590;29;20212;-90
2022/11/14 00:31:02;;;;;;;22.77;11.17;;;8.70;99.90;;;;;;4772479;30;20212;-91
2022/11/14 00:33:29;;;;;;;25.60;12.10;;;8.70;99.90;;;;;;4772692;30;20223;-89
2022/11/14 00:35:57;;;;;;;28.07;11.53;;;8.80;99.90;;;;;;4771957;30;20203;-89
2022/11/14 00:38:24;;;;;;;23.83;11.53;;;8.80;99.90;;;;;;4772322;30;20577;-90
2022/11/14 00:40:51;;;;;;;24.00;10.83;;;8.70;99.90;;;;;;4772313;30;20212;-88
2022/11/14 00:43:18;;;;;;;23.83;11.17;;;8.90;99.90;;;;;;4771293;30;20216;-88
2022/11/14 00:45:46;;;;;;;25.57;12.10;;;8.80;99.90;;;;;;4771705;30;20208;-84
2022/11/14 00:48:14;;;;;;;23.30;10.73;;;8.80;99.90;;;;;;4772801;30;20208;-89
2022/11/14 00:50:43;;;;;;;21.90;10.60;;;8.90;99.90;;;;;;4772299;30;20241;-90
2022/11/14 00:53:33;;;;;;;19.47;9.73;;;8.80;99.90;;;;;;4772224;30;20709;-91
2022/11/14 00:56:02;;;;;;;18.53;9.37;;;8.70;99.90;;;;;;4771967;30;20718;-89
2022/11/14 00:58:55;;;;;;;20.33;10.00;;;8.90;99.90;;;;;;4753280;30;20680;-90
2022/11/14 01:01:26;;;;;;;19.57;9.83;;;8.80;99.90;;;;;;4768947;30;20299;-90
2022/11/14 01:03:57;;;;;;;23.20;10.23;;;8.70;99.90;;;;;;4768145;30;20303;-88
2022/11/14 01:06:24;;;;;;;20.43;9.70;;;8.70;99.90;;;;;;4753136;30;20212;-89
2022/11/14 01:08:51;;;;;;;21.13;9.67;;;8.80;99.90;;;;;;4767808;30;20567;-89
2022/11/14 01:11:20;;;;;;;23.00;9.73;;;8.60;99.90;;;;;;4753291;30;20634;-90
2022/11/14 01:13:48;;;;;;;21.17;9.77;;;8.80;99.90;;;;;;4753101;30;20213;-89
2022/11/14 01:16:15;;;;;;;25.83;9.63;;;8.80;99.90;;;;;;4759763;30;20211;-90
2022/11/14 01:18:42;;;;;;;18.73;9.20;;;8.70;99.90;;;;;;4771860;30;20208;-88
2022/11/14 01:21:11;;;;;;;19.87;10.00;;;8.70;99.90;;;;;;4771774;30;20216;-89
2022/11/14 01:23:39;;;;;;;19.00;10.17;;;8.70;99.90;;;;;;4756786;30;20211;-89
2022/11/14 01:26:09;;;;;;;21.33;9.83;;;8.70;99.90;;;;;;4787676;29;20231;-89
2022/11/14 01:28:37;;;;;;;19.60;9.07;;;8.80;99.90;;;;;;4788019;29;20287;-89
2022/11/14 01:31:13;;;;;;;18.67;9.30;;;8.70;99.90;;;;;;4771632;30;20593;-90
2022/11/14 01:33:41;;;;;;;20.67;9.20;;;8.70;99.90;;;;;;4771869;30;20204;-89
2022/11/14 01:36:09;;;;;;;20.27;9.07;;;8.60;99.90;;;;;;4771643;30;20202;-90
2022/11/14 01:38:36;;;;;;;19.50;10.10;;;8.60;99.90;;;;;;4787954;30;20351;-89
2022/11/14 01:41:04;;;;;;;20.90;10.50;;;8.60;99.90;;;;;;4787984;30;20651;-86
2022/11/14 01:43:38;;;;;;;22.40;10.07;;;8.60;99.90;;;;;;4772097;30;20264;-88
2022/11/14 01:46:09;;;;;;;21.50;10.27;;;8.60;99.90;;;;;;4787509;29;20207;-90
2022/11/14 01:48:54;;;;;;;17.20;8.87;;;8.50;99.90;;;;;;4787835;29;20207;-87
2022/11/14 01:51:47;;;;;;;21.73;10.50;;;8.50;99.90;;;;;;4787808;30;20195;-89
2022/11/14 01:54:42;;;;;;;21.77;9.93;;;8.50;99.90;;;;;;4735006;30;20569;-89
2022/11/14 01:57:13;;;;;;;24.10;10.63;;;8.50;99.90;;;;;;4737654;30;20213;-84
2022/11/14 01:59:54;;;;;;;22.40;10.10;;;8.50;99.90;;;;;;4738616;30;20318;-89
2022/11/14 02:02:24;;;;;;;19.67;9.97;;;8.60;99.90;;;;;;4738898;30;20225;-89
2022/11/14 02:05:05;;;;;;;22.80;10.73;;;8.60;99.90;;;;;;4738364;30;20258;-89
2022/11/14 02:07:36;;;;;;;25.83;11.20;;;8.60;99.90;;;;;;4753055;30;20216;-89
2022/11/14 02:10:07;;;;;;;22.57;10.40;;;8.70;99.90;;;;;;4753296;30;20354;-87
2022/11/14 02:12:36;;;;;;;24.80;11.07;;;8.60;99.90;;;;;;4753034;30;20214;-89
2022/11/14 02:15:03;;;;;;;23.90;11.27;;;8.70;99.90;;;;;;4738584;30;20224;-90
2022/11/14 02:17:31;;;;;;;21.37;11.33;;;8.70;99.90;;;;;;4738839;30;20205;-91
2022/11/14 02:20:07;;;;;;;25.23;12.30;;;8.70;99.90;;;;;;4723921;30;20630;-87
2022/11/14 02:22:34;;;;;;;23.83;11.83;;;8.60;99.90;;;;;;4752949;30;20219;-85
2022/11/14 02:25:01;;;;;;;24.70;12.43;;;8.70;99.90;;;;;;4752684;30;20213;-86
2022/11/14 02:27:30;;;;;;;25.80;12.40;;;8.60;99.90;;;;;;4738400;30;20212;-86
2022/11/14 02:30:15;;;;;;;26.17;13.07;;;8.60;99.90;;;;;;4752659;30;20593;-86
2022/11/14 02:32:42;;;;;;;31.40;13.53;;;8.60;99.90;;;;;;4786458;30;20212;-91
2022/11/14 02:35:29;;;;;;;28.77;13.20;;;8.70;99.90;;;;;;4770943;30;20298;-91
2022/11/14 02:37:56;;;;;;;29.03;14.40;;;8.60;99.90;;;;;;4772401;30;20295;-90
2022/11/14 02:40:23;;;;;;;28.37;14.17;;;8.70;99.90;;;;;;4756568;30;20216;-87
2022/11/14 02:42:49;;;;;;;29.13;14.03;;;8.50;99.90;;;;;;4771185;30;20211;-90
2022/11/14 02:45:16;;;;;;;28.87;13.90;;;8.60;99.90;;;;;;4770757;30;20212;-85
2022/11/14 02:47:43;;;;;;;27.17;13.70;;;8.60;99.90;;;;;;4772361;30;20204;-91
2022/11/14 02:50:10;;;;;;;30.27;14.13;;;8.60;99.90;;;;;;4771560;30;20232;-85
2022/11/14 02:52:37;;;;;;;28.93;13.77;;;8.60;99.90;;;;;;4773312;30;20228;-89
2022/11/14 02:55:05;;;;;;;27.47;13.43;;;8.60;99.90;;;;;;4774164;30;20243;-88
2022/11/14 02:57:31;;;;;;;25.50;13.67;;;8.50;99.90;;;;;;4789811;29;20273;-86
2022/11/14 02:59:58;;;;;;;24.67;13.20;;;8.50;99.90;;;;;;4774234;30;20212;-90
2022/11/14 03:02:25;;;;;;;31.10;14.27;;;8.50;99.90;;;;;;4789901;29;20202;-87
2022/11/14 03:04:52;;;;;;;29.23;13.00;;;8.40;99.90;;;;;;4774054;30;20203;-89
2022/11/14 03:07:19;;;;;;;28.13;13.73;;;8.30;99.90;;;;;;4773716;30;20650;-90
2022/11/14 03:09:46;;;;;;;28.00;13.57;;;8.30;99.90;;;;;;4759632;30;20611;-88
2022/11/14 03:12:17;;;;;;;27.17;14.40;;;8.40;99.90;;;;;;4773608;30;20303;-89
2022/11/14 03:14:44;;;;;;;26.57;12.83;;;8.20;99.90;;;;;;4773596;29;20217;-89
2022/11/14 03:17:11;;;;;;;37.20;14.27;;;8.30;99.90;;;;;;4773581;30;20221;-90
2022/11/14 03:19:38;;;;;;;22.63;12.33;;;8.30;99.90;;;;;;4773437;30;20219;-89
2022/11/14 03:22:05;;;;;;;24.57;11.87;;;8.20;99.90;;;;;;4773657;30;20222;-88
2022/11/14 03:24:32;;;;;;;23.10;11.10;;;8.20;99.90;;;;;;4773340;30;20264;-90
2022/11/14 03:26:59;;;;;;;20.90;11.00;;;8.20;99.90;;;;;;4773182;30;20580;-88
2022/11/14 03:29:26;;;;;;;22.23;10.63;;;8.20;99.90;;;;;;4773373;30;20212;-88
2022/11/14 03:31:53;;;;;;;25.07;11.10;;;8.20;99.90;;;;;;4773297;30;20574;-84
2022/11/14 03:34:20;;;;;;;21.13;10.63;;;8.20;99.90;;;;;;4789293;29;20200;-88
2022/11/14 03:36:47;;;;;;;23.33;10.77;;;8.20;99.90;;;;;;4789230;29;20192;-88
2022/11/14 03:39:14;;;;;;;19.03;9.50;;;8.30;99.90;;;;;;4773342;30;20666;-88
2022/11/14 03:41:41;;;;;;;17.50;9.20;;;8.30;99.90;;;;;;4774466;30;20207;-89
2022/11/14 03:44:08;;;;;;;18.70;9.73;;;8.30;99.90;;;;;;4774123;30;20208;-89
2022/11/14 03:46:37;;;;;;;21.60;9.77;;;8.40;99.90;;;;;;4789918;29;20218;-87
2022/11/14 03:49:04;;;;;;;20.57;10.40;;;8.40;99.90;;;;;;4772855;30;20203;-85
2022/11/14 03:51:31;;;;;;;22.50;10.13;;;8.30;99.90;;;;;;4773232;30;20223;-88
2022/11/14 03:53:57;;;;;;;17.67;9.33;;;8.40;99.90;;;;;;4788615;29;20238;-86
2022/11/14 03:56:24;;;;;;;19.93;9.80;;;8.30;99.90;;;;;;4772912;30;20245;-85
2022/11/14 03:58:51;;;;;;;18.37;9.50;;;8.40;99.90;;;;;;4772792;30;20564;-87
2022/11/14 04:01:18;;;;;;;19.23;9.70;;;8.40;99.90;;;;;;4772702;30;20212;-89
2022/11/14 04:03:45;;;;;;;19.00;9.70;;;8.30;99.90;;;;;;4772634;30;20236;-86
2022/11/14 04:06:12;;;;;;;19.17;9.77;;;8.30;99.90;;;;;;4773197;30;20195;-91
2022/11/14 04:08:41;;;;;;;21.17;10.20;;;8.40;99.90;;;;;;4773515;30;20219;-89
2022/11/14 04:11:08;;;;;;;19.77;9.90;;;8.50;99.90;;;;;;4757969;30;20235;-89
2022/11/14 04:13:34;;;;;;;20.87;9.80;;;8.50;99.90;;;;;;4772590;30;20205;-90
2022/11/14 04:16:02;;;;;;;19.07;9.53;;;8.50;99.90;;;;;;4773758;30;20212;-89
2022/11/14 04:18:29;;;;;;;18.43;9.30;;;8.50;99.90;;;;;;4771970;30;20206;-90
2022/11/14 04:20:56;;;;;;;17.80;9.40;;;8.50;99.90;;;;;;4772695;30;20343;-90
2022/11/14 04:23:23;;;;;;;16.23;9.00;;;8.40;99.90;;;;;;4789023;29;20218;-92
2022/11/14 04:25:50;;;;;;;18.40;9.50;;;8.40;99.90;;;;;;4772173;30;20669;-88
2022/11/14 04:28:17;;;;;;;16.50;9.30;;;8.50;99.90;;;;;;4789012;29;20212;-90
2022/11/14 04:30:44;;;;;;;17.23;8.87;;;8.30;99.90;;;;;;4772667;30;20243;-91
2022/11/14 04:33:11;;;;;;;16.17;8.77;;;8.30;99.90;;;;;;4772454;30;20294;-89
2022/11/14 04:35:38;;;;;;;16.90;8.67;;;8.30;99.90;;;;;;4788830;29;20206;-86
2022/11/14 04:38:05;;;;;;;13.60;8.63;;;8.20;99.90;;;;;;4772336;30;20208;-86
2022/11/14 04:40:32;;;;;;;16.00;8.83;;;8.30;99.90;;;;;;4772546;30;20214;-91
2022/11/14 04:42:59;;;;;;;14.30;8.60;;;8.20;99.90;;;;;;4788616;29;20203;-90
2022/11/14 04:45:26;;;;;;;16.30;9.63;;;8.10;99.90;;;;;;4772299;30;20685;-90
2022/11/14 04:47:53;;;;;;;18.90;9.97;;;8.10;99.90;;;;;;4772731;30;20211;-87
2022/11/14 04:50:19;;;;;;;18.40;9.27;;;8.20;99.90;;;;;;4772062;30;20223;-84
2022/11/14 04:52:51;;;;;;;16.87;9.50;;;8.10;99.90;;;;;;4772727;30;20278;-88
2022/11/14 04:55:20;;;;;;;16.73;9.00;;;8.20;99.90;;;;;;4771630;30;20270;-85
2022/11/14 04:57:52;;;;;;;15.80;8.60;;;8.20;99.90;;;;;;4788073;29;20274;-88
2022/11/14 05:00:19;;;;;;;17.57;8.53;;;8.30;99.90;;;;;;4772644;30;20210;-84
2022/11/14 05:03:02;;;;;;;17.30;8.43;;;8.20;99.90;;;;;;4772307;30;20211;-90
2022/11/14 05:05:31;;;;;;;19.40;9.00;;;8.10;99.90;;;;;;4771886;30;20222;-94
2022/11/14 05:07:58;;;;;;;15.43;8.13;;;8.10;99.90;;;;;;4772131;30;20199;-85
2022/11/14 05:10:25;;;;;;;15.93;8.57;;;8.10;99.90;;;;;;4771610;30;20229;-87
2022/11/14 05:12:54;;;;;;;17.03;8.27;;;8.10;99.90;;;;;;4771737;30;20224;-87
2022/11/14 05:15:21;;;;;;;16.73;8.67;;;8.10;99.90;;;;;;4771561;30;20215;-87
2022/11/14 05:17:48;;;;;;;13.70;7.70;;;8.10;99.90;;;;;;4772385;30;20217;-85
2022/11/14 05:20:16;;;;;;;20.00;8.70;;;8.10;99.90;;;;;;4788044;29;20209;-86
2022/11/14 05:22:42;;;;;;;21.77;8.80;;;8.10;99.90;;;;;;4775294;30;20219;-86
2022/11/14 05:25:10;;;;;;;15.87;7.77;;;8.20;99.90;;;;;;4771705;30;20208;-86
2022/11/14 05:27:37;;;;;;;14.53;7.90;;;8.20;99.90;;;;;;4771576;29;20302;-91
2022/11/14 05:30:05;;;;;;;12.83;7.30;;;8.20;99.90;;;;;;4759408;29;20208;-89
2022/11/14 05:32:31;;;;;;;19.57;8.00;;;8.30;99.90;;;;;;4791362;29;20199;-90
2022/11/14 05:34:58;;;;;;;12.50;7.17;;;8.20;99.90;;;;;;4776006;30;20555;-89
2022/11/14 05:37:25;;;;;;;17.57;7.97;;;8.10;99.90;;;;;;4791585;29;20215;-91
2022/11/14 05:39:52;;;;;;;13.13;7.40;;;8.20;99.90;;;;;;4775270;29;20542;-91
2022/11/14 05:42:19;;;;;;;20.27;7.70;;;8.20;99.90;;;;;;4791455;30;20201;-91
2022/11/14 05:44:46;;;;;;;13.43;7.27;;;8.20;99.90;;;;;;4775053;30;20224;-88
2022/11/14 05:47:12;;;;;;;14.07;7.50;;;8.20;99.90;;;;;;4791013;29;20287;-91
2022/11/14 05:49:39;;;;;;;16.37;7.50;;;8.20;99.90;;;;;;4791358;29;20199;-91
2022/11/14 05:52:06;;;;;;;15.77;7.70;;;8.30;99.90;;;;;;4775137;30;20238;-90
2022/11/14 05:54:33;;;;;;;15.03;7.50;;;8.20;99.90;;;;;;4774564;30;20246;-88
2022/11/14 05:57:00;;;;;;;13.50;7.60;;;8.10;99.90;;;;;;4774855;30;20272;-90
2022/11/14 05:59:27;;;;;;;14.03;6.43;;;8.20;99.90;;;;;;4791484;29;20542;-90
2022/11/14 06:01:54;;;;;;;14.77;7.67;;;8.10;99.90;;;;;;4774933;30;20209;-92
2022/11/14 06:04:21;;;;;;;16.47;7.67;;;8.20;99.90;;;;;;4774800;30;20211;-87
2022/11/14 06:06:48;;;;;;;13.67;7.13;;;8.10;99.90;;;;;;4774882;30;20211;-92
2022/11/14 06:09:15;;;;;;;15.57;7.50;;;8.10;99.90;;;;;;4774581;30;20681;-89
2022/11/14 06:11:42;;;;;;;14.50;7.50;;;8.10;99.90;;;;;;4790655;29;20222;-91
2022/11/14 06:14:09;;;;;;;14.33;8.07;;;8.30;99.90;;;;;;4790624;29;20207;-87
2022/11/14 06:16:37;;;;;;;16.90;8.17;;;8.10;99.90;;;;;;4774411;30;20219;-87
2022/11/14 06:19:04;;;;;;;16.00;8.00;;;8.10;99.90;;;;;;4774823;30;20215;-92
2022/11/14 06:21:31;;;;;;;15.27;8.17;;;8.10;99.90;;;;;;4790768;29;20199;-94
2022/11/14 06:24:00;;;;;;;15.73;7.83;;;8.20;99.90;;;;;;4760694;30;20554;-96
2022/11/14 06:26:29;;;;;;;14.23;7.20;;;8.20;99.90;;;;;;4762778;30;20212;-86
2022/11/14 06:29:00;;;;;;;15.53;7.40;;;8.10;99.90;;;;;;4791653;29;20207;-95
2022/11/14 06:31:27;;;;;;;15.80;7.40;;;8.10;99.90;;;;;;4774586;30;20280;-92
2022/11/14 06:33:55;;;;;;;16.80;7.57;;;8.10;99.90;;;;;;4774356;30;20298;-91
2022/11/14 06:36:22;;;;;;;14.67;8.10;;;8.20;99.90;;;;;;4759413;30;20303;-83
2022/11/14 06:38:49;;;;;;;15.60;8.10;;;8.10;99.90;;;;;;4790173;29;20302;-85
2022/11/14 06:41:19;;;;;;;15.10;7.73;;;8.10;99.90;;;;;;4772933;30;20212;-85
2022/11/14 06:43:49;;;;;;;16.03;8.00;;;8.20;99.90;;;;;;4790387;29;20233;-84
2022/11/14 06:46:19;;;;;;;18.63;8.00;;;8.30;99.90;;;;;;4790087;29;20230;-87
2022/11/14 06:48:47;;;;;;;18.67;8.80;;;8.20;99.90;;;;;;4790650;29;20230;-88
2022/11/14 06:51:15;;;;;;;15.50;8.20;;;8.20;99.90;;;;;;4796095;29;20230;-89
2022/11/14 06:53:43;;;;;;;16.60;8.07;;;8.30;99.90;;;;;;4773885;30;20224;-83
2022/11/14 06:56:13;;;;;;;17.60;8.43;;;8.30;99.90;;;;;;4773869;30;20327;-85
2022/11/14 06:58:45;;;;;;;15.40;7.60;;;8.30;99.90;;;;;;4790587;29;20206;-86
2022/11/14 07:01:21;;;;;;;17.13;7.60;;;8.30;99.90;;;;;;4759480;30;20630;-89
2022/11/14 07:03:49;;;;;;;16.13;8.60;;;8.30;99.90;;;;;;4774053;30;20211;-89
2022/11/14 07:06:21;;;;;;;27.37;9.13;;;8.40;99.90;;;;;;4774070;30;20252;-87
2022/11/14 07:08:48;;;;;;;19.50;8.40;;;8.50;99.90;;;;;;4790219;30;20253;-89
2022/11/14 07:11:25;;;;;;;14.90;7.93;;;8.30;99.90;;;;;;4773977;30;20229;-87
2022/11/14 07:13:58;;;;;;;15.03;7.60;;;8.30;99.90;;;;;;4789641;30;20547;-87
2022/11/14 07:16:28;;;;;;;12.50;6.77;;;8.30;99.90;;;;;;4789850;29;20562;-86
2022/11/14 07:18:57;;;;;;;12.90;6.73;;;8.20;99.90;;;;;;4790009;29;20288;-87
2022/11/14 07:21:26;;;;;;;13.87;7.13;;;8.10;99.90;;;;;;4759010;30;20651;-86
2022/11/14 07:23:53;;;;;;;15.33;7.10;;;8.10;99.90;;;;;;4789694;29;20201;-85
2022/11/14 07:26:20;;;;;;;12.20;6.53;;;8.20;99.90;;;;;;4773257;30;20207;-87
2022/11/14 07:28:47;;;;;;;11.43;6.23;;;8.10;99.90;;;;;;4773376;30;20212;-86
2022/11/14 07:31:20;;;;;;;10.50;5.80;;;8.10;99.90;;;;;;4789379;29;20277;-87
2022/11/14 07:33:47;;;;;;;15.10;6.53;;;8.20;99.90;;;;;;4789685;29;20678;-85
2022/11/14 07:36:15;;;;;;;12.17;5.40;;;8.10;99.90;;;;;;4773214;30;20210;-85
2022/11/14 07:38:42;;;;;;;12.50;6.30;;;8.10;99.90;;;;;;4773450;30;20211;-84
2022/11/14 07:41:12;;;;;;;11.83;5.93;;;8.00;99.90;;;;;;4773093;30;20233;-85
2022/11/14 07:43:39;;;;;;;9.37;5.27;;;8.00;99.90;;;;;;4789187;29;20623;-86
2022/11/14 07:46:12;;;;;;;9.33;5.40;;;8.10;99.90;;;;;;4773088;30;20207;-87
2022/11/14 07:48:39;;;;;;;13.83;5.80;;;8.10;99.90;;;;;;4773101;29;20667;-85
2022/11/14 07:51:09;;;;;;;10.40;5.40;;;8.00;99.90;;;;;;4773158;30;20232;-86
2022/11/14 07:53:36;;;;;;;20.20;6.37;;;8.20;99.90;;;;;;4788952;29;20237;-84
2022/11/14 07:56:06;;;;;;;11.13;5.43;;;8.20;99.90;;;;;;4772436;29;20735;-84
2022/11/14 07:58:35;;;;;;;10.30;5.27;;;8.10;99.90;;;;;;4772586;30;20303;-84
2022/11/14 08:01:04;;;;;;;10.43;5.50;;;8.20;99.90;;;;;;4772737;30;20596;-86
2022/11/14 08:03:33;;;;;;;9.47;5.20;;;8.10;99.90;;;;;;4789172;29;20206;-86
2022/11/14 08:06:04;;;;;;;12.37;5.57;;;8.10;99.90;;;;;;4772758;30;20205;-85
2022/11/14 08:08:31;;;;;;;11.80;5.77;;;8.20;99.90;;;;;;4773048;30;20208;-85
2022/11/14 08:10:59;;;;;;;10.27;5.40;;;8.20;99.90;;;;;;4788626;29;20236;-87
2022/11/14 08:13:27;;;;;;;11.73;5.40;;;8.20;99.90;;;;;;4772555;30;20207;-86
2022/11/14 08:16:04;;;;;;;11.50;5.17;;;8.20;99.90;;;;;;4772363;30;20208;-86
2022/11/14 08:18:38;;;;;;;11.40;5.37;;;8.20;99.90;;;;;;4788255;29;20212;-83
2022/11/14 08:21:05;;;;;;;12.00;5.50;;;8.20;99.90;;;;;;4772465;30;20208;-84
2022/11/14 08:23:32;;;;;;;12.37;5.37;;;8.10;99.90;;;;;;4772955;30;20209;-86
2022/11/14 08:25:59;;;;;;;11.00;6.10;;;8.20;99.90;;;;;;4788378;29;20233;-87
2022/11/14 08:28:26;;;;;;;12.23;5.40;;;8.10;99.90;;;;;;4772351;30;20662;-87
2022/11/14 08:31:00;;;;;;;8.23;4.70;;;8.20;99.90;;;;;;4772121;30;20210;-88
2022/11/14 08:33:26;;;;;;;7.67;4.67;;;8.20;99.90;;;;;;4757320;30;20204;-81
2022/11/14 08:35:53;;;;;;;9.93;4.47;;;8.30;99.90;;;;;;4787908;29;20203;-82
2022/11/14 08:38:20;;;;;;;8.23;4.60;;;8.20;99.90;;;;;;4771891;30;20227;-81
2022/11/14 08:40:47;;;;;;;7.57;4.27;;;8.20;99.90;;;;;;4788000;30;20204;-78
2022/11/14 08:43:14;;;;;;;15.33;5.40;;;8.20;99.90;;;;;;4772645;29;20246;-82
2022/11/14 08:45:41;;;;;;;6.43;4.13;;;8.30;99.90;;;;;;4771649;29;20212;-78
2022/11/14 08:48:08;;;;;;;6.50;3.97;;;8.20;99.90;;;;;;4772116;30;20308;-77
2022/11/14 08:50:35;;;;;;;7.57;4.63;;;8.20;99.90;;;;;;4788242;29;20602;-77
2022/11/14 08:53:02;;;;;;;8.47;4.30;;;8.10;99.90;;;;;;4771591;30;20238;-76
2022/11/14 08:55:29;;;;;;;10.00;5.63;;;8.10;99.90;;;;;;4771741;30;20235;-76
2022/11/14 08:57:56;;;;;;;9.83;5.93;;;8.20;99.90;;;;;;4787878;29;20234;-79
2022/11/14 09:00:23;;;;;;;14.13;6.60;;;8.10;99.90;;;;;;4772456;30;20198;-76
2022/11/14 09:02:50;;;;;;;9.83;6.53;;;8.10;99.90;;;;;;4771690;29;20211;-76
2022/11/14 09:05:17;;;;;;;19.60;7.10;;;8.20;99.90;;;;;;4771486;30;20230;-74
2022/11/14 09:07:44;;;;;;;13.27;6.87;;;8.20;99.90;;;;;;4771874;30;20211;-75
2022/11/14 09:10:20;;;;;;;13.13;7.20;;;8.20;99.90;;;;;;4771827;30;20226;-76
2022/11/14 09:12:54;;;;;;;9.97;6.30;;;8.10;99.90;;;;;;4771927;30;20230;-76
2022/11/14 09:15:21;;;;;;;11.93;7.00;;;8.20;99.90;;;;;;4787545;29;20192;-75
2022/11/14 09:17:55;;;;;;;11.70;7.13;;;8.20;99.90;;;;;;4771675;30;20246;-87
2022/11/14 09:20:24;;;;;;;12.77;7.30;;;8.20;99.90;;;;;;4772849;30;20291;-84
2022/11/14 09:23:00;;;;;;;16.20;7.23;;;8.20;99.90;;;;;;4788002;30;20199;-83
2022/11/14 09:25:28;;;;;;;10.73;6.77;;;8.10;99.90;;;;;;4771690;30;20207;-81
2022/11/14 09:27:55;;;;;;;10.93;6.97;;;8.20;99.90;;;;;;4771616;30;20273;-78
2022/11/14 09:30:23;;;;;;;10.37;7.20;;;8.30;99.90;;;;;;4772211;30;20658;-86
2022/11/14 09:32:50;;;;;;;11.03;7.50;;;8.20;99.90;;;;;;4787419;29;20224;-87
2022/11/14 09:35:17;;;;;;;11.67;7.67;;;8.30;99.90;;;;;;4757521;30;20217;-86
2022/11/14 09:37:43;;;;;;;11.97;7.93;;;8.20;99.90;;;;;;4771949;30;20224;-83
2022/11/14 09:40:13;;;;;;;14.10;7.30;;;8.30;99.90;;;;;;4787538;30;20203;-83
2022/11/14 09:43:01;;;;;;;13.13;6.20;;;8.40;99.90;;;;;;4756689;30;20277;-83
2022/11/14 09:45:29;;;;;;;10.50;6.37;;;8.30;99.90;;;;;;4771311;30;20204;-84
2022/11/14 09:48:06;;;;;;;10.73;6.37;;;8.30;99.90;;;;;;4788579;29;20211;-82
2022/11/14 09:50:38;;;;;;;8.70;5.67;;;8.40;99.90;;;;;;4771679;30;20207;-82
2022/11/14 09:53:25;;;;;;;10.30;5.90;;;8.50;99.90;;;;;;4787466;29;20256;-84
2022/11/14 09:55:52;;;;;;;7.97;5.50;;;8.50;99.90;;;;;;4787412;29;20220;-82
2022/11/14 09:58:20;;;;;;;9.00;5.20;;;8.50;99.90;;;;;;4787459;29;20204;-84
2022/11/14 10:00:57;;;;;;;10.47;5.50;;;8.60;99.90;;;;;;4787637;29;20224;-85
2022/11/14 10:03:43;;;;;;;10.27;5.83;;;8.60;99.90;;;;;;4771497;30;20212;-85
2022/11/14 10:06:39;;;;;;;10.23;6.07;;;8.40;99.90;;;;;;4771606;29;20580;-83
2022/11/14 10:09:17;;;;;;;13.57;6.53;;;8.50;99.90;;;;;;4788023;30;20284;-82
2022/11/14 10:12:28;;;;;;;10.33;6.60;;;8.50;99.90;;;;;;4771953;30;20239;-81
2022/11/14 10:15:13;;;;;;;8.43;5.43;;;8.50;99.90;;;;;;4735111;30;20219;-83
2022/11/14 10:17:51;;;;;;;10.93;5.73;;;8.50;99.90;;;;;;4737832;30;20213;-85
2022/11/14 10:20:28;;;;;;;7.30;4.90;;;8.60;99.90;;;;;;4739286;30;20209;-85
2022/11/14 10:23:18;;;;;;;8.17;4.60;;;8.50;99.90;;;;;;4754376;30;20217;-77
2022/11/14 10:25:53;;;;;;;7.03;4.23;;;8.60;99.90;;;;;;4752717;30;20241;-83
2022/11/14 10:28:23;;;;;;;7.63;4.80;;;8.50;99.90;;;;;;4738742;30;20282;-82
2022/11/14 10:30:52;;;;;;;10.10;5.30;;;8.40;99.90;;;;;;4753798;30;20220;-87
2022/11/14 10:33:35;;;;;;;13.47;7.07;;;8.40;99.90;;;;;;4753631;30;20355;-88
2022/11/14 10:36:44;;;;;;;14.43;7.13;;;8.40;99.90;;;;;;4752405;30;20222;-83
2022/11/14 10:39:17;;;;;;;12.17;7.20;;;8.30;99.90;;;;;;4753256;30;20302;-85
2022/11/14 10:41:45;;;;;;;16.07;7.80;;;8.40;99.90;;;;;;4738039;30;20598;-87
2022/11/14 10:44:42;;;;;;;14.13;7.90;;;8.30;99.90;;;;;;4753056;30;20214;-87
2022/11/14 10:47:14;;;;;;;15.53;8.27;;;8.20;99.90;;;;;;4738378;30;20794;-91
2022/11/14 10:49:45;;;;;;;19.60;8.77;;;8.20;99.90;;;;;;4758097;30;20575;-89
2022/11/14 10:52:16;;;;;;;15.60;8.27;;;8.20;99.90;;;;;;4784033;30;20228;-88
2022/11/14 10:55:00;;;;;;;18.00;8.73;;;8.20;99.90;;;;;;4782471;30;20259;-87
2022/11/14 10:57:27;;;;;;;12.83;7.40;;;8.30;99.90;;;;;;4774573;30;20203;-90
2022/11/14 10:59:54;;;;;;;22.97;8.47;;;8.20;99.90;;;;;;4790491;29;20218;-86
2022/11/14 11:02:21;;;;;;;13.97;7.20;;;8.20;99.90;;;;;;4773942;30;20204;-89
2022/11/14 11:04:48;;;;;;;12.93;6.40;;;8.20;99.90;;;;;;4789802;29;20199;-86
2022/11/14 11:13:12;;;;;;;10.10;5.37;;;8.20;99.90;;;;;;4790302;30;20599;-87
2022/11/14 11:15:41;;;;;;;12.07;5.47;;;8.20;99.90;;;;;;4773883;30;20196;-87
2022/11/14 11:18:26;;;;;;;10.23;5.30;;;8.20;99.90;;;;;;4773735;30;20204;-86
2022/11/14 11:21:09;;;;;;;11.30;5.33;;;8.30;99.90;;;;;;4773709;30;20207;-86
2022/11/14 11:23:55;;;;;;;8.27;4.40;;;8.40;99.90;;;;;;4773414;30;20285;-84
2022/11/14 11:26:29;;;;;;;8.33;4.70;;;8.40;99.90;;;;;;4773200;29;20243;-87
2022/11/14 11:29:11;;;;;;;7.57;4.40;;;8.30;99.90;;;;;;4789659;30;20258;-88
2022/11/14 11:31:58;;;;;;;8.30;4.40;;;8.40;99.90;;;;;;4773145;30;20207;-88
2022/11/14 11:34:28;;;;;;;10.30;4.80;;;8.50;99.90;;;;;;4772408;30;20207;-87
2022/11/14 11:37:16;;;;;;;9.73;5.20;;;8.50;99.90;;;;;;4773323;30;20211;-87
2022/11/14 11:39:57;;;;;;;14.80;7.07;;;8.50;99.90;;;;;;4773025;30;20204;-76
2022/11/14 11:43:13;;;;;;;13.53;6.80;;;8.50;99.90;;;;;;4772933;30;20210;-76
2022/11/14 11:46:05;;;;;;;12.73;7.43;;;8.50;99.90;;;;;;4788887;30;20264;-79
2022/11/14 11:48:39;;;;;;;13.40;8.20;;;8.60;99.90;;;;;;4772622;30;20568;-76
2022/11/14 11:51:15;;;;;;;15.73;8.50;;;8.60;99.90;;;;;;4788862;30;20200;-78
2022/11/14 11:53:49;;;;;;;16.70;8.63;;;8.60;99.90;;;;;;4772405;30;20243;-78
2022/11/14 11:56:23;;;;;;;15.23;8.67;;;8.60;99.90;;;;;;4788626;30;20216;-76
2022/11/14 11:58:55;;;;;;;14.83;9.30;;;8.60;99.90;;;;;;4772806;30;20210;-79
2022/11/14 12:01:22;;;;;;;18.23;10.27;;;8.50;99.90;;;;;;4772549;30;20207;-77
2022/11/14 12:03:51;;;;;;;24.10;11.73;;;8.40;99.90;;;;;;4772497;30;20234;-77
2022/11/14 12:06:23;;;;;;;30.43;15.03;;;8.40;99.90;;;;;;4772833;30;20630;-78
2022/11/14 12:09:06;;;;;;;31.40;15.60;;;8.50;99.90;;;;;;4772810;30;20251;-78
2022/11/14 12:11:36;;;;;;;31.40;14.57;;;8.30;99.90;;;;;;4772722;30;20216;-77
2022/11/14 12:14:27;;;;;;;33.23;15.63;;;8.20;99.90;;;;;;4788719;29;20215;-75
2022/11/14 12:17:16;;;;;;;25.87;13.40;;;8.20;99.90;;;;;;4785394;29;20655;-73
2022/11/14 12:20:02;;;;;;;21.90;10.70;;;8.20;99.90;;;;;;4772425;30;20207;-77
2022/11/14 12:22:47;;;;;;;22.97;11.40;;;8.00;99.90;;;;;;4772226;30;20211;-73
2022/11/14 12:25:42;;;;;;;22.73;11.33;;;7.90;99.90;;;;;;4771882;30;20206;-79
2022/11/14 12:28:26;;;;;;;26.33;12.27;;;7.90;99.90;;;;;;4772155;30;20211;-79
2022/11/14 12:31:00;;;;;;;22.27;11.63;;;8.00;99.90;;;;;;4772222;30;20203;-79
2022/11/14 12:33:48;;;;;;;31.63;13.23;;;8.10;99.90;;;;;;4786876;30;20706;-81
2022/11/14 12:36:15;;;;;;;38.17;14.87;;;8.00;99.90;;;;;;4771934;30;20212;-81
2022/11/14 12:38:49;;;;;;;40.10;16.27;;;7.90;99.90;;;;;;4786330;29;20224;-82
2022/11/14 12:41:29;;;;;;;41.73;15.57;;;7.80;99.90;;;;;;4788428;30;20196;-84
2022/11/14 12:44:16;;;;;;;38.07;15.97;;;7.80;99.90;;;;;;4771910;30;20679;-74
2022/11/14 12:47:04;;;;;;;43.77;16.60;;;7.90;99.90;;;;;;4784495;29;20203;-74
2022/11/14 12:49:57;;;;;;;47.73;17.40;;;7.80;99.90;;;;;;4771738;30;20207;-75
2022/11/14 12:52:39;;;;;;;46.23;17.87;;;7.90;99.90;;;;;;4771723;30;20232;-72
2022/11/14 12:55:24;;;;;;;43.90;16.50;;;7.80;99.90;;;;;;4769868;30;20238;-71
2022/11/14 12:58:06;;;;;;;41.57;16.23;;;7.80;99.90;;;;;;4769133;30;20568;-71
2022/11/14 13:00:37;;;;;;;40.37;16.13;;;7.80;99.90;;;;;;4768783;30;20207;-70
2022/11/14 13:03:29;;;;;;;39.63;15.73;;;7.70;99.90;;;;;;4768524;30;20205;-71
2022/11/14 13:06:02;;;;;;;37.10;15.37;;;7.70;99.90;;;;;;4768693;30;20641;-74
2022/11/14 13:08:47;;;;;;;38.70;15.33;;;7.60;99.90;;;;;;4769170;30;20207;-79
2022/11/14 13:23:41;;;;;;;39.47;16.67;;;7.70;99.90;;;;;;4769925;30;20206;-79
2022/11/14 13:26:08;;;;;;;37.30;15.97;;;7.70;99.90;;;;;;4755388;30;20226;-87